WSSS Airport Information

Runway Information
Runway 02C Length 13123 ft width 197 ft
Elevation 15 ft Threshold ft Heading 23
Runway 20C Length 13123 ft Width 197 ft
Elevation 15 ft Threshold ft Heading 203
Runway 02R Length 13123 ft width 197 ft
Elevation 16 ft Threshold ft Heading 23
Runway 20L Length 13123 ft Width 197 ft
Elevation 15 ft Threshold ft Heading 203
Runway 02L Length 13123 ft width 197 ft
Elevation 22 ft Threshold ft Heading 23
Runway 20R Length 13123 ft Width 197 ft
Elevation 14 ft Threshold 2429 ft Heading 203
Airport Frequencies
Type A/D Name APP/DEP Frequency 120.3 MHZ
Type ARR Name ARR Frequency 119.3 MHZ
Type ATIS Name ATIS Frequency 128.6 MHZ
Type CLD Name CLNC DEL Frequency 121.65 MHZ
Type GND Name GND Frequency 124.3 MHZ
Type TWR Name TWR Frequency 118.6 MHZ
Airport Navaids
Type NDB Name Bedok Frequency 232 KHZ
Type VOR-DME Name Tekong Frequency 116500 KHZ
Airport Weather Information & NOTAM
ADDS - METARS form results

(0003 UTC 28 September 2022)
Data provider http://aviationweather.gov/metar/data/
 
METAR text: WSSS 280000Z VRB02KT 9000 FEW018CB FEW020TCU BKN300 28/24 Q1008 NOSIG
Conditions at: WSSS (SINGAPORE/CHANGI, SG) observed 0000 UTC 28 September 2022
Temperature: 28.0°C (82°F)
Dewpoint: 24.0°C (75°F) [RH = 79%]
Pressure (altimeter): 29.76 inches Hg (1008.0 mb)
Winds: variable direction winds at 2 MPH (2 knots; 1.0 m/s)
Visibility: 6 miles ( 9 km)
Ceiling: 30000 feet AGL
Clouds: few clouds at 1800 feet AGL
few clouds at 2000 feet AGL
broken clouds at 30000 feet AGL
Weather: no significant weather observed at this time

METAR text: WSSS 272330Z VRB02KT 8000 FEW018CB FEW020TCU BKN300 26/24 Q1008 NOSIG
Conditions at: WSSS (SINGAPORE/CHANGI, SG) observed 2330 UTC 27 September 2022
Temperature: 26.0°C (79°F)
Dewpoint: 24.0°C (75°F) [RH = 89%]
Pressure (altimeter): 29.76 inches Hg (1008.0 mb)
Winds: variable direction winds at 2 MPH (2 knots; 1.0 m/s)
Visibility: 5 miles ( 8 km)
Ceiling: 30000 feet AGL
Clouds: few clouds at 1800 feet AGL
few clouds at 2000 feet AGL
broken clouds at 30000 feet AGL
Weather: no significant weather observed at this time

Forecast for: WSSS (SINGAPORE/CHANGI, SG)
Text: TAF WSSS 272300Z 2800/2906 17008KT 9999 FEW015 BKN020
Forecast period: 0000 UTC 28 September 2022 to 0600 UTC 29 September 2022
Forecast type: FROM: standard forecast or significant change
Winds: from the S (170 degrees) at 9 MPH (8 knots; 4.1 m/s)
Visibility: 6 or more miles (10+ km)
Ceiling: 2000 feet AGL
Clouds: few clouds at 1500 feet AGL
broken clouds at 2000 feet AGL
Weather: no significant weather forecast for this period
Text: TEMPO 2802/2806 3000 TSRA FEW012CB BKN015
Forecast period: 0200 to 0600 UTC 28 September 2022
Forecast type: TEMPORARY: The following changes expected for less than half the time period
Visibility: 1.86 miles (2.99 km)
Ceiling: 1500 feet AGL
Clouds: few clouds at 1200 feet AGL
broken clouds at 1500 feet AGL
Weather: TSRA  (rain associated with thunderstorm(s))